Time;durP1;ratioP1;P1;durP2;ratioP2;P2;SDS_P1;SDS_P2;PMS_P1;PMS_P2;Temp;Humidity;BMP_temperature;BMP_pressure;BME280_temperature;BME280_humidity;BME280_pressure;Samples;Min_cycle;Max_cycle;Signal;HPM_P1;HPM_P2
2022/08/07 00:02:47;;;;;;;5.85;1.98;;;;;;;13.98;85.05;101554.75;8226647;28;20495;-50
2022/08/07 00:06:48;;;;;;;4.20;2.22;;;;;;;13.85;85.90;101545.97;8226222;28;20122;-48
2022/08/07 00:10:49;;;;;;;8.90;2.40;;;;;;;13.55;87.06;101546.78;8225963;28;20054;-48
2022/08/07 00:14:50;;;;;;;5.43;2.22;;;;;;;13.58;87.74;101545.69;8226461;28;20035;-47
2022/08/07 00:18:50;;;;;;;6.07;2.75;;;;;;;13.35;89.09;101538.66;8226019;28;20035;-46
2022/08/07 00:22:51;;;;;;;10.63;2.65;;;;;;;13.34;89.28;101536.94;8226241;28;20050;-50
2022/08/07 00:26:51;;;;;;;4.90;2.22;;;;;;;13.12;90.07;101526.22;8226663;28;20035;-47
2022/08/07 00:30:52;;;;;;;4.75;2.30;;;;;;;13.07;91.13;101529.34;8225315;28;20042;-48
2022/08/07 00:34:52;;;;;;;6.00;2.40;;;;;;;13.31;89.73;101518.19;8226319;28;20038;-48
2022/08/07 00:38:53;;;;;;;3.53;2.20;;;;;;;12.85;90.52;101517.69;8228376;28;20089;-47
2022/08/07 00:42:55;;;;;;;10.55;2.40;;;;;;;12.82;92.49;101523.38;8231732;28;20034;-48
2022/08/07 00:46:55;;;;;;;11.15;2.67;;;;;;;12.93;91.37;101520.63;8231841;28;20035;-47
2022/08/07 00:50:56;;;;;;;5.97;1.88;;;;;;;12.77;91.62;101520.19;8230678;28;20602;-48
2022/08/07 00:54:56;;;;;;;4.38;2.22;;;;;;;12.48;93.11;101519.09;8245405;28;20133;-51
2022/08/07 00:58:57;;;;;;;6.95;2.33;;;;;;;12.67;93.87;101514.69;8230826;28;20035;-47
2022/08/07 01:02:58;;;;;;;6.07;2.45;;;;;;;12.82;93.83;101507.97;8223450;28;20038;-48
2022/08/07 01:06:58;;;;;;;8.48;2.58;;;;;;;13.13;92.50;101511.66;8230765;28;20030;-48
2022/08/07 01:10:59;;;;;;;5.13;2.28;;;;;;;12.85;93.91;101512.28;8228782;28;20042;-47
2022/08/07 01:15:00;;;;;;;10.93;2.30;;;;;;;12.97;91.99;101506.66;8226950;28;20114;-48
2022/08/07 01:19:03;;;;;;;8.27;2.30;;;;;;;13.14;90.87;101505.22;8222750;28;20034;-47
2022/08/07 01:23:04;;;;;;;6.43;2.03;;;;;;;13.14;90.70;101497.06;8226347;28;20047;-52
2022/08/07 01:27:04;;;;;;;5.50;2.17;;;;;;;12.64;91.62;101495.09;8230525;28;20038;-49
2022/08/07 01:31:05;;;;;;;3.92;2.20;;;;;;;12.68;91.89;101500.13;8228644;28;20414;-48
2022/08/07 01:35:06;;;;;;;5.20;2.47;;;;;;;12.44;93.31;101485.09;8227278;28;20031;-47
2022/08/07 01:39:07;;;;;;;5.78;2.42;;;;;;;12.13;95.26;101485.94;8227905;28;20038;-48
2022/08/07 01:43:07;;;;;;;12.18;2.80;;;;;;;12.09;96.69;101495.28;8230414;28;20031;-48
2022/08/07 01:47:08;;;;;;;7.72;2.58;;;;;;;12.37;94.98;101498.28;8229206;28;20038;-51
2022/08/07 01:51:12;;;;;;;4.05;2.70;;;;;;;12.54;94.69;101499.59;8227611;28;20039;-49
2022/08/07 01:55:14;;;;;;;7.40;2.65;;;;;;;12.36;94.40;101502.00;8227581;28;20067;-48
2022/08/07 01:59:21;;;;;;;3.78;2.65;;;;;;;12.19;94.87;101501.66;8230460;28;20407;-48
2022/08/07 02:03:23;;;;;;;6.68;2.67;;;;;;;11.83;96.77;101503.69;8229478;28;20061;-48
2022/08/07 02:07:31;;;;;;;4.80;2.80;;;;;;;11.61;98.22;101510.94;8229275;28;20038;-50
2022/08/07 02:11:33;;;;;;;3.83;2.72;;;;;;;12.08;95.78;101505.28;8222937;28;20078;-50
2022/08/07 02:15:36;;;;;;;7.40;3.13;;;;;;;11.76;96.45;101502.47;8226124;28;20065;-50
2022/08/07 02:19:40;;;;;;;4.68;2.63;;;;;;;12.00;95.43;101496.91;8224740;28;20046;-47
2022/08/07 02:23:42;;;;;;;5.95;2.90;;;;;;;11.80;96.60;101494.94;8228986;28;20067;-48
2022/08/07 02:27:44;;;;;;;3.75;2.38;;;;;;;11.92;96.07;101487.69;8225674;28;20502;-47
2022/08/07 02:31:46;;;;;;;6.15;2.72;;;;;;;11.75;96.57;101492.59;8227455;28;20435;-47
2022/08/07 02:35:48;;;;;;;4.03;3.08;;;;;;;11.55;98.57;101495.16;8227358;28;20043;-51
2022/08/07 02:39:49;;;;;;;4.10;2.90;;;;;;;11.55;99.16;101504.16;8226513;28;20128;-47
2022/08/07 02:43:51;;;;;;;5.35;3.00;;;;;;;11.61;98.10;101495.56;8226589;28;20050;-47
2022/08/07 02:47:51;;;;;;;4.78;2.45;;;;;;;11.78;96.04;101486.09;8224177;28;20047;-48
2022/08/07 02:51:57;;;;;;;3.47;2.30;;;;;;;11.64;96.61;101489.03;8226923;28;20517;-48
2022/08/07 02:56:00;;;;;;;4.18;2.78;;;;;;;11.12;99.83;101492.31;8222391;28;20041;-47
2022/08/07 03:00:01;;;;;;;3.75;2.97;;;;;;;10.93;100.00;101481.22;8224845;28;20039;-47
2022/08/07 03:04:05;;;;;;;4.10;2.67;;;;;;;10.80;100.00;101485.81;8224777;28;20039;-47
2022/08/07 03:08:07;;;;;;;3.80;2.90;;;;;;;11.19;100.00;101488.13;8225212;28;20030;-48
2022/08/07 03:12:09;;;;;;;4.40;2.72;;;;;;;11.48;97.06;101478.56;8226117;28;20282;-48
2022/08/07 03:16:09;;;;;;;5.43;3.10;;;;;;;11.54;97.44;101478.06;8226483;28;20041;-49
2022/08/07 03:20:11;;;;;;;7.32;2.88;;;;;;;11.67;98.39;101489.66;8226509;28;20031;-48
2022/08/07 03:24:11;;;;;;;3.63;2.58;;;;;;;11.61;98.69;101490.13;8226732;28;20039;-48
2022/08/07 03:28:15;;;;;;;4.20;3.08;;;;;;;11.03;99.39;101498.44;8227122;28;20550;-47
2022/08/07 03:32:21;;;;;;;5.43;2.92;;;;;;;10.93;100.00;101492.03;8237711;28;20051;-48
2022/08/07 03:36:24;;;;;;;6.47;3.13;;;;;;;10.89;100.00;101485.09;8205411;28;20034;-48
2022/08/07 03:40:25;;;;;;;5.53;3.08;;;;;;;10.71;100.00;101481.16;8223503;28;20054;-48
2022/08/07 03:44:26;;;;;;;4.20;2.95;;;;;;;10.64;100.00;101479.88;8226324;28;20046;-47
2022/08/07 03:48:28;;;;;;;9.48;4.05;;;;;;;10.56;100.00;101478.75;8225806;28;20062;-48
2022/08/07 03:52:30;;;;;;;4.85;3.35;;;;;;;10.45;100.00;101474.16;8226729;28;20043;-47
2022/08/07 03:56:35;;;;;;;6.47;3.25;;;;;;;10.68;100.00;101477.81;8224915;28;20050;-48
2022/08/07 04:00:37;;;;;;;4.82;2.90;;;;;;;10.87;100.00;101476.28;8231363;28;20050;-48
2022/08/07 04:04:41;;;;;;;5.30;3.00;;;;;;;10.90;100.00;101486.84;8223289;28;20046;-50
2022/08/07 04:08:42;;;;;;;4.60;2.80;;;;;;;10.82;100.00;101478.47;8226608;28;20039;-49
2022/08/07 04:12:43;;;;;;;8.35;3.22;;;;;;;10.59;100.00;101479.38;8225410;28;20054;-48
2022/08/07 04:16:44;;;;;;;7.50;3.20;;;;;;;10.39;100.00;101488.13;8232952;28;20038;-48
2022/08/07 04:20:45;;;;;;;4.07;3.17;;;;;;;10.49;100.00;101491.84;8231543;28;20034;-48
2022/08/07 04:24:47;;;;;;;5.20;3.85;;;;;;;10.76;100.00;101483.47;8232060;28;20043;-48
2022/08/07 04:28:48;;;;;;;4.00;3.33;;;;;;;11.09;100.00;101489.84;8230869;28;20049;-48
2022/08/07 04:32:49;;;;;;;7.90;3.15;;;;;;;10.67;100.00;101500.44;8220566;28;20042;-48
2022/08/07 04:36:50;;;;;;;8.57;3.58;;;;;;;10.57;100.00;101494.84;8232025;28;20034;-47
2022/08/07 04:40:51;;;;;;;10.20;4.10;;;;;;;10.70;100.00;101495.63;8227869;28;20446;-48
2022/08/07 04:44:51;;;;;;;4.53;3.42;;;;;;;10.86;100.00;101493.47;8229224;28;20034;-47
2022/08/07 04:49:31;;;;;;;10.43;4.03;;;;;;;10.91;100.00;101503.94;8231871;28;20045;-49
2022/08/07 04:53:40;;;;;;;7.93;4.57;;;;;;;11.38;99.57;101499.22;8228400;28;20125;-48
2022/08/07 04:57:50;;;;;;;7.95;3.63;;;;;;;11.57;98.45;101504.91;8233137;28;20096;-48
2022/08/07 05:06:20;;;;;;;7.28;4.15;;;;;;;11.87;98.04;101501.59;8402042;27;20474;-46
2022/08/07 05:10:27;;;;;;;6.88;4.68;;;;;;;12.36;95.54;101509.25;8394537;28;20036;-46
2022/08/07 05:14:36;;;;;;;4.95;4.10;;;;;;;12.50;93.75;101511.69;8403823;28;20050;-47
2022/08/07 05:18:54;;;;;;;6.28;4.50;;;;;;;12.89;92.29;101508.28;8404088;28;20036;-48
2022/08/07 05:23:00;;;;;;;7.32;3.75;;;;;;;13.00;92.36;101516.44;8394415;28;20438;-47
2022/08/07 05:27:01;;;;;;;6.53;3.60;;;;;;;13.01;91.07;101515.41;8394177;28;20040;-50
2022/08/07 05:31:03;;;;;;;12.35;3.88;;;;;;;13.46;90.08;101516.88;8390019;28;20029;-47
2022/08/07 05:35:06;;;;;;;5.65;4.15;;;;;;;13.69;88.66;101518.41;8390071;28;20043;-50
2022/08/07 05:39:07;;;;;;;8.25;3.38;;;;;;;13.93;88.36;101518.94;8391090;28;20043;-47
2022/08/07 05:43:08;;;;;;;6.00;3.88;;;;;;;14.21;87.30;101515.44;8391440;28;20044;-47
2022/08/07 05:47:10;;;;;;;7.72;3.78;;;;;;;14.63;84.52;101516.97;8391864;28;20037;-50
2022/08/07 05:51:13;;;;;;;5.35;3.65;;;;;;;14.88;84.04;101523.72;8390665;28;20033;-51
2022/08/07 05:55:13;;;;;;;5.43;3.90;;;;;;;15.11;83.50;101520.56;8401138;28;20042;-50
2022/08/07 05:59:17;;;;;;;10.10;4.25;;;;;;;15.21;83.54;101529.56;8394381;28;20037;-49
2022/08/07 06:03:20;;;;;;;4.82;3.17;;;;;;;15.62;82.43;101525.63;8393315;28;20481;-51
2022/08/07 06:07:21;;;;;;;17.83;3.97;;;;;;;15.82;81.66;101526.44;8391453;28;20070;-48
2022/08/07 06:11:21;;;;;;;7.65;3.95;;;;;;;15.89;81.54;101533.00;8393206;28;20053;-47
2022/08/07 06:15:22;;;;;;;7.63;3.90;;;;;;;16.42;81.84;101531.28;8384738;28;20521;-49
2022/08/07 06:19:25;;;;;;;8.02;3.65;;;;;;;16.62;79.94;101533.75;8366330;28;20033;-47
2022/08/07 06:23:27;;;;;;;8.48;3.67;;;;;;;16.85;79.87;101542.34;8368845;28;20070;-47
2022/08/07 06:27:28;;;;;;;14.10;4.07;;;;;;;16.82;78.53;101546.25;8370728;28;20103;-46
2022/08/07 06:31:28;;;;;;;9.40;4.03;;;;;;;17.12;78.32;101536.78;8367743;28;20044;-47
2022/08/07 06:35:28;;;;;;;9.73;3.40;;;;;;;17.37;76.36;101535.97;8372247;28;20052;-49
2022/08/07 06:39:31;;;;;;;9.02;4.65;;;;;;;17.55;76.03;101537.69;8368715;28;20637;-48
2022/08/07 06:43:34;;;;;;;7.97;4.47;;;;;;;17.43;75.57;101535.38;8369005;28;20135;-47
2022/08/07 06:47:35;;;;;;;5.67;3.50;;;;;;;17.36;74.86;101526.06;8369049;28;20037;-46
2022/08/07 06:51:38;;;;;;;10.95;3.60;;;;;;;17.53;75.03;101538.84;8370201;28;20060;-47
2022/08/07 06:55:39;;;;;;;5.43;3.03;;;;;;;17.77;74.03;101533.53;8377642;28;20041;-48
2022/08/07 06:59:42;;;;;;;6.85;3.00;;;;;;;18.19;72.54;101531.69;8377582;28;20047;-47
2022/08/07 07:03:43;;;;;;;3.90;2.72;;;;;;;18.42;71.39;101535.56;8371119;28;20075;-48
2022/08/07 07:07:44;;;;;;;5.32;3.33;;;;;;;18.30;71.83;101525.06;8372742;28;20067;-50
2022/08/07 07:11:58;;;;;;;7.63;3.40;;;;;;;18.69;71.17;101532.56;8365253;28;20435;-47
2022/08/07 07:16:04;;;;;;;7.78;3.53;;;;;;;19.21;69.09;101523.00;8362822;28;20493;-47
2022/08/07 07:20:11;;;;;;;5.47;3.00;;;;;;;19.39;68.22;101531.09;8402397;28;20041;-50
2022/08/07 07:24:15;;;;;;;6.47;3.30;;;;;;;19.55;67.64;101525.59;8375517;28;20501;-50
2022/08/07 07:28:22;;;;;;;7.50;3.03;;;;;;;19.98;66.35;101524.28;8369760;28;20132;-47
2022/08/07 07:32:23;;;;;;;6.50;2.45;;;;;;;20.24;63.49;101516.66;8384033;28;20128;-48
2022/08/07 07:36:26;;;;;;;4.78;2.05;;;;;;;20.10;61.32;101514.63;8371799;28;20546;-49
2022/08/07 07:40:29;;;;;;;3.90;2.30;;;;;;;20.74;62.04;101519.81;8371976;28;20037;-50
2022/08/07 07:44:31;;;;;;;4.20;2.50;;;;;;;20.72;61.55;101511.75;8360163;28;20119;-47
2022/08/07 07:48:33;;;;;;;8.90;2.45;;;;;;;20.59;61.02;101510.63;8364386;28;20052;-51
2022/08/07 07:52:36;;;;;;;6.90;2.40;;;;;;;20.84;59.45;101507.56;8375840;28;20033;-51
2022/08/07 07:56:38;;;;;;;4.07;2.10;;;;;;;21.21;59.17;101507.63;8364917;28;20048;-48
2022/08/07 08:00:40;;;;;;;2.75;1.65;;;;;;;21.17;57.69;101511.75;8372709;28;20508;-48
2022/08/07 08:04:44;;;;;;;3.47;1.90;;;;;;;21.38;57.41;101507.47;8367738;28;20049;-48
2022/08/07 08:08:45;;;;;;;3.13;1.50;;;;;;;21.69;56.42;101500.78;8370881;28;20040;-50
2022/08/07 08:12:47;;;;;;;6.78;1.77;;;;;;;21.90;55.92;101498.16;8366261;28;20024;-52
2022/08/07 08:16:50;;;;;;;2.10;1.48;;;;;;;22.35;54.73;101497.09;8379770;28;20033;-51
2022/08/07 08:20:51;;;;;;;3.50;1.05;;;;;;;22.25;53.57;101489.09;8373799;28;20405;-48
2022/08/07 08:27:21;;;;;;;8.48;1.42;;;;;;;22.36;53.09;101498.78;8364562;28;20127;-48
2022/08/07 08:29:15;;;;;;;5.03;1.50;;;;;;;22.84;53.24;101487.91;8378570;28;20050;-48
2022/08/07 08:33:19;;;;;;;3.65;1.60;;;;;;;22.98;52.86;101483.38;8372789;28;20037;-51
2022/08/07 08:37:21;;;;;;;2.43;1.10;;;;;;;22.57;52.40;101477.63;8371120;28;20037;-49
2022/08/07 08:41:33;;;;;;;4.85;1.00;;;;;;;23.03;53.05;101480.91;8370045;28;20044;-47
2022/08/07 08:45:43;;;;;;;2.17;0.88;;;;;;;22.72;52.25;101469.34;8372894;28;20105;-50
2022/08/07 08:50:23;;;;;;;5.43;1.08;;;;;;;23.40;51.24;101460.44;8368194;28;20036;-49
2022/08/07 08:54:40;;;;;;;3.75;1.10;;;;;;;23.73;49.69;101462.38;8372476;28;20098;-48
2022/08/07 08:58:50;;;;;;;3.75;0.95;;;;;;;24.01;50.51;101454.03;8369639;28;20120;-48
2022/08/07 09:03:06;;;;;;;4.45;0.80;;;;;;;23.61;49.70;101452.94;8364446;28;20044;-49
2022/08/07 09:07:16;;;;;;;4.80;0.80;;;;;;;23.64;49.34;101449.78;8363567;28;20487;-50
2022/08/07 09:11:21;;;;;;;2.63;0.80;;;;;;;24.63;48.92;101454.69;8373959;28;20036;-51
2022/08/07 09:15:49;;;;;;;4.45;0.80;;;;;;;24.45;47.46;101452.53;8375053;28;20332;-49
2022/08/07 09:20:04;;;;;;;2.30;0.70;;;;;;;24.36;46.22;101452.91;8367688;28;20052;-51
2022/08/07 09:24:33;;;;;;;2.42;0.57;;;;;;;24.41;46.70;101450.38;8373329;28;20410;-48
2022/08/07 09:28:40;;;;;;;2.63;0.40;;;;;;;24.56;46.64;101449.16;8364824;28;20059;-50
2022/08/07 09:37:06;;;;;;;1.65;0.50;;;;;;;24.83;47.25;101439.88;8386108;27;20401;-49
2022/08/07 09:41:33;;;;;;;2.70;0.50;;;;;;;24.83;47.51;101433.50;8382034;28;20608;-49
2022/08/07 09:45:43;;;;;;;3.08;2.80;;;;;;;24.75;46.12;101431.78;8391476;27;20045;-50
2022/08/07 09:49:56;;;;;;;1.92;0.60;;;;;;;25.03;46.25;101420.50;8391646;27;20047;-47
2022/08/07 09:53:59;;;;;;;1.07;0.40;;;;;;;25.60;44.83;101409.63;8395751;27;20048;-48
2022/08/07 09:58:25;;;;;;;1.17;0.40;;;;;;;27.40;42.04;101403.47;8393330;28;20358;-52
2022/08/07 10:02:48;;;;;;;2.53;0.43;;;;;;;29.90;39.05;101392.91;8410457;28;20489;-49
2022/08/07 10:07:00;;;;;;;1.85;0.40;;;;;;;31.36;36.84;101403.03;8411076;28;20040;-50
2022/08/07 10:11:23;;;;;;;1.75;0.35;;;;;;;30.94;37.10;101400.88;8424635;27;20047;-51
2022/08/07 10:15:50;;;;;;;2.03;0.60;;;;;;;31.74;37.82;101396.59;8406715;28;20044;-48
2022/08/07 10:20:30;;;;;;;4.78;1.52;;;;;;;31.25;36.24;101397.50;8405865;28;20051;-52
2022/08/07 10:24:47;;;;;;;1.02;0.20;;;;;;;29.77;37.27;101399.59;8395503;28;20047;-50
2022/08/07 10:29:10;;;;;;;0.47;0.20;;;;;;;30.71;37.35;101396.25;8399947;28;20097;-49
2022/08/07 10:33:50;;;;;;;1.65;0.30;;;;;;;33.23;33.86;101385.47;8404251;28;20040;-51
2022/08/07 10:38:30;;;;;;;0.20;0.20;;;;;;;32.85;33.75;101382.88;8403626;28;20029;-48
2022/08/07 10:42:39;;;;;;;0.55;0.20;;;;;;;33.19;34.28;101387.13;8401312;28;20131;-47
2022/08/07 10:46:51;;;;;;;1.65;0.20;;;;;;;32.11;34.51;101376.16;8389757;28;20040;-48
2022/08/07 10:50:55;;;;;;;0.70;0.20;;;;;;;31.49;34.43;101371.06;8372866;28;20057;-47
2022/08/07 10:55:02;;;;;;;0.68;0.20;;;;;;;30.69;35.94;101369.66;8377188;28;20037;-47
2022/08/07 10:59:42;;;;;;;0.50;0.10;;;;;;;31.13;34.90;101360.41;8382694;28;20486;-48
2022/08/07 11:04:02;;;;;;;0.98;0.47;;;;;;;32.03;34.36;101367.38;8384355;28;20036;-52
2022/08/07 11:12:27;;;;;;;1.48;0.32;;;;;;;31.55;34.71;101336.47;8338024;27;20935;-49
2022/08/07 11:21:01;;;;;;;0.80;0.20;;;;;;;32.65;34.71;101332.22;8367528;27;20407;-49
2022/08/07 11:25:30;;;;;;;2.45;0.38;;;;;;;33.16;34.64;101325.13;8343898;28;20045;-48
2022/08/07 11:29:44;;;;;;;3.80;0.77;;;;;;;33.74;32.46;101308.94;8343977;28;20048;-49
2022/08/07 11:34:07;;;;;;;1.92;0.30;;;;;;;32.74;34.13;101319.44;8342809;28;20021;-49
2022/08/07 11:38:19;;;;;;;1.02;0.57;;;;;;;31.73;34.39;101313.78;8341329;28;20143;-49
2022/08/07 11:42:29;;;;;;;1.42;0.30;;;;;;;31.99;34.81;101305.47;8341155;28;20033;-52
2022/08/07 11:46:45;;;;;;;1.08;0.40;;;;;;;31.56;34.62;101299.03;8345729;28;20520;-50
2022/08/07 11:51:19;;;;;;;0.45;0.25;;;;;;;33.16;33.77;101311.97;8335366;28;20666;-50
2022/08/07 11:55:52;;;;;;;0.70;0.30;;;;;;;32.32;33.78;101314.81;8342794;28;20033;-51
2022/08/07 12:00:04;;;;;;;0.43;0.30;;;;;;;33.00;33.66;101300.91;8330088;28;20053;-49
2022/08/07 12:04:28;;;;;;;0.50;0.20;;;;;;;33.04;33.85;101296.44;8330358;28;20608;-51
2022/08/07 12:08:29;;;;;;;;;;;;;;;29.07;37.07;101299.53;8322217;28;20091;-49
2022/08/07 12:12:42;;;;;;;0.82;0.30;;;;;;;27.45;39.18;101285.03;8323647;28;20412;-49
2022/08/07 12:16:52;;;;;;;0.80;0.40;;;;;;;26.65;40.01;101286.03;8329885;28;21834;-50
2022/08/07 12:21:19;;;;;;;0.85;0.30;;;;;;;27.08;41.16;101282.44;8311524;28;20056;-49
2022/08/07 12:26:02;;;;;;;1.83;0.30;;;;;;;26.49;40.08;101278.25;8319919;28;20041;-50
2022/08/07 12:29:58;;;;;;;1.58;0.60;;;;;;;26.24;40.46;101284.84;8300508;28;20116;-50
2022/08/07 12:34:00;;;;;;;1.45;0.30;;;;;;;26.16;40.26;101280.41;8298720;28;20128;-49
2022/08/07 12:38:02;;;;;;;0.52;0.30;;;;;;;25.70;39.85;101277.03;8316377;28;20099;-48
2022/08/07 12:42:06;;;;;;;2.15;0.47;;;;;;;25.82;40.14;101280.81;8323022;28;20049;-48
2022/08/07 12:51:06;;;;;;;0.45;0.30;;;;;;;26.36;39.80;101263.66;8378749;27;20393;-48
2022/08/07 12:55:16;;;;;;;1.20;0.35;;;;;;;25.98;40.16;101269.22;8379029;28;20051;-49
2022/08/07 12:59:21;;;;;;;1.17;0.30;;;;;;;25.99;39.55;101265.41;8383452;28;20269;-52
2022/08/07 13:08:42;;;;;;;1.10;0.60;;;;;;;26.70;39.91;101252.94;8380375;27;20365;-50
2022/08/07 13:13:10;;;;;;;0.30;0.20;;;;;;;26.11;39.46;101249.75;8390890;28;20456;-49
2022/08/07 13:17:19;;;;;;;2.35;0.30;;;;;;;25.81;39.79;101245.88;8402173;28;20111;-49
2022/08/07 13:21:26;;;;;;;2.10;0.40;;;;;;;25.79;41.38;101236.91;8399357;28;20097;-51
2022/08/07 13:25:33;;;;;;;1.10;0.30;;;;;;;25.77;41.98;101224.38;8398200;28;20673;-48
2022/08/07 13:30:04;;;;;;;1.13;0.40;;;;;;;26.26;40.85;101227.25;8395995;28;20585;-51
2022/08/07 13:34:43;;;;;;;1.27;0.38;;;;;;;26.43;41.47;101228.38;8394155;28;20145;-52
2022/08/07 13:38:55;;;;;;;0.50;0.40;;;;;;;26.04;41.30;101221.22;8400923;28;20045;-50
2022/08/07 13:43:01;;;;;;;1.10;0.40;;;;;;;26.04;41.73;101224.00;8381374;28;20063;-49
2022/08/07 13:47:03;;;;;;;0.50;0.30;;;;;;;25.98;42.02;101208.25;8385450;28;20388;-50
2022/08/07 13:51:05;;;;;;;1.13;0.50;;;;;;;26.39;41.41;101211.34;8385909;28;20136;-50
2022/08/07 13:55:15;;;;;;;4.57;0.47;;;;;;;26.31;40.49;101208.00;8385546;28;20131;-51
2022/08/07 13:59:22;;;;;;;0.70;0.30;;;;;;;26.22;39.96;101203.81;8384385;28;20047;-48
2022/08/07 14:03:26;;;;;;;2.47;0.50;;;;;;;26.50;40.11;101210.59;8379536;28;20440;-48
2022/08/07 14:07:29;;;;;;;4.03;0.77;;;;;;;26.12;40.77;101197.91;8382076;28;20079;-51
2022/08/07 14:11:33;;;;;;;3.00;0.68;;;;;;;26.35;41.01;101195.41;8388803;28;20039;-50
2022/08/07 14:15:38;;;;;;;1.88;0.35;;;;;;;26.53;40.19;101196.28;8383474;28;20067;-49
2022/08/07 14:20:01;;;;;;;1.67;0.43;;;;;;;26.48;40.42;101185.03;8372143;28;20102;-48
2022/08/07 14:24:07;;;;;;;1.87;0.53;;;;;;;26.26;40.69;101183.72;8369180;28;20444;-48
2022/08/07 14:28:10;;;;;;;0.90;0.30;;;;;;;26.23;41.04;101184.16;8359621;28;20095;-48
2022/08/07 14:32:12;;;;;;;0.73;0.47;;;;;;;26.45;40.79;101179.94;8367068;28;20060;-50
2022/08/07 14:36:12;;;;;;;0.70;0.40;;;;;;;26.87;41.00;101185.72;8366197;28;20537;-49
2022/08/07 14:40:16;;;;;;;0.77;0.30;;;;;;;26.24;40.15;101172.03;8362310;28;20477;-49
2022/08/07 14:44:18;;;;;;;1.20;0.40;;;;;;;26.21;39.91;101174.38;8363080;28;20132;-51
2022/08/07 14:48:21;;;;;;;1.63;0.40;;;;;;;26.66;40.04;101168.41;8365675;28;20504;-48
2022/08/07 14:52:23;;;;;;;1.00;0.32;;;;;;;26.14;40.43;101160.56;8365144;28;20045;-48
2022/08/07 14:56:26;;;;;;;1.40;0.32;;;;;;;26.28;40.36;101164.94;8373262;28;20039;-49
2022/08/07 15:00:31;;;;;;;1.15;0.40;;;;;;;26.37;40.43;101158.03;8367030;28;20059;-47
2022/08/07 15:04:39;;;;;;;1.00;0.20;;;;;;;26.22;40.19;101160.28;8366756;28;20076;-50
2022/08/07 15:08:42;;;;;;;1.90;0.45;;;;;;;26.06;40.29;101160.88;8366907;28;20029;-48
2022/08/07 15:12:44;;;;;;;0.98;0.40;;;;;;;26.19;40.08;101155.19;8368523;28;20482;-49
2022/08/07 15:16:57;;;;;;;1.10;0.30;;;;;;;26.33;40.08;101150.38;8367873;28;20033;-49
2022/08/07 15:21:01;;;;;;;1.13;0.40;;;;;;;26.46;39.94;101156.66;8370682;28;20368;-49
2022/08/07 15:25:11;;;;;;;1.10;0.50;;;;;;;26.33;39.64;101156.78;8361008;28;20078;-51
2022/08/07 15:29:14;;;;;;;0.95;0.45;;;;;;;26.31;40.82;101142.28;8363292;28;20060;-49
2022/08/07 15:33:18;;;;;;;1.20;0.35;;;;;;;26.21;40.27;101152.19;8362024;28;20037;-50
2022/08/07 15:37:22;;;;;;;0.90;0.40;;;;;;;26.28;40.14;101153.84;8361535;28;20442;-49
2022/08/07 15:41:24;;;;;;;;;;;;;;;26.24;40.15;101147.06;8363542;28;20048;-49
2022/08/07 15:45:29;;;;;;;0.60;0.30;;;;;;;26.47;40.37;101141.69;8363816;28;19920;-49
2022/08/07 15:49:34;;;;;;;0.73;0.45;;;;;;;26.62;40.22;101138.59;8362079;28;20501;-50
2022/08/07 15:53:41;;;;;;;0.95;0.32;;;;;;;26.72;39.94;101134.19;8365456;28;20043;-48
2022/08/07 15:57:50;;;;;;;1.27;0.45;;;;;;;26.51;39.74;101126.31;8369470;28;20051;-48
2022/08/07 16:01:53;;;;;;;1.23;0.38;;;;;;;26.49;40.22;101122.91;8375763;28;20053;-50
2022/08/07 16:05:53;;;;;;;0.93;0.32;;;;;;;26.59;40.25;101128.78;8372002;28;20106;-50
2022/08/07 16:10:08;;;;;;;1.00;0.40;;;;;;;26.38;40.25;101126.44;8366089;28;20056;-48
2022/08/07 16:14:46;;;;;;;2.72;0.47;;;;;;;26.53;40.29;101123.31;8370485;28;20122;-49
2022/08/07 16:19:02;;;;;;;1.63;0.55;;;;;;;26.14;40.40;101118.97;8361620;28;20368;-49
2022/08/07 16:23:31;;;;;;;1.08;0.40;;;;;;;26.17;40.61;101120.47;8364226;28;20029;-50
2022/08/07 16:27:40;;;;;;;1.48;0.45;;;;;;;26.21;40.33;101119.78;8359360;28;20036;-48
2022/08/07 16:32:00;;;;;;;3.17;0.50;;;;;;;26.07;40.73;101112.66;8361427;28;20037;-46
2022/08/07 16:36:24;;;;;;;1.70;0.40;;;;;;;26.11;40.63;101116.69;8359107;28;20036;-50
2022/08/07 16:40:58;;;;;;;1.73;0.65;;;;;;;25.94;40.83;101123.84;8362179;28;20127;-48
2022/08/07 16:54:45;;;;;;;1.65;0.60;;;;;;;26.07;40.96;101115.44;8390729;27;20413;-48
2022/08/07 16:58:54;;;;;;;1.55;0.50;;;;;;;26.11;41.37;101116.69;8372289;28;20607;-48
2022/08/07 17:03:17;;;;;;;3.15;0.77;;;;;;;26.17;41.28;101117.69;8376187;28;20128;-48
2022/08/07 17:07:24;;;;;;;1.92;0.50;;;;;;;26.09;40.70;101121.59;8336530;28;20041;-47
2022/08/07 17:11:38;;;;;;;1.10;0.45;;;;;;;25.98;40.72;101116.78;8336831;28;20037;-48
2022/08/07 17:15:48;;;;;;;1.60;0.40;;;;;;;25.94;40.61;101118.28;8339027;28;20053;-47
2022/08/07 17:19:57;;;;;;;2.33;0.45;;;;;;;25.78;41.02;101118.84;8333835;28;20029;-48
2022/08/07 17:24:35;;;;;;;1.08;0.50;;;;;;;25.76;41.67;101114.59;8345211;28;20029;-49
2022/08/07 17:29:00;;;;;;;1.45;0.30;;;;;;;25.63;42.10;101112.78;8337851;28;20037;-49
2022/08/07 17:33:24;;;;;;;1.23;0.50;;;;;;;25.50;42.61;101121.19;8343687;28;20715;-47
2022/08/07 17:42:00;;;;;;;1.05;0.60;;;;;;;25.32;42.92;101118.31;8390719;27;20422;-48
2022/08/07 17:46:25;;;;;;;1.47;0.50;;;;;;;25.35;43.07;101117.88;8378560;28;20045;-48
2022/08/07 17:50:52;;;;;;;2.95;0.65;;;;;;;25.28;43.71;101117.00;8370965;28;20039;-48
2022/08/07 17:55:02;;;;;;;3.25;0.60;;;;;;;25.21;44.12;101107.91;8370737;28;20044;-50
2022/08/07 17:59:42;;;;;;;1.05;0.80;;;;;;;25.19;44.55;101123.91;8408767;28;20036;-46
2022/08/07 18:08:23;;;;;;;2.72;0.82;;;;;;;24.99;45.86;101123.13;8358208;27;20388;-50
2022/08/07 18:12:40;;;;;;;3.03;0.70;;;;;;;24.82;46.82;101125.53;8351708;28;20041;-50
2022/08/07 18:16:45;;;;;;;4.22;0.98;;;;;;;24.72;47.77;101129.81;8371416;28;20043;-48
2022/08/07 18:20:59;;;;;;;1.33;0.60;;;;;;;24.52;48.35;101126.25;8314451;28;20049;-50
2022/08/07 18:25:03;;;;;;;1.05;0.70;;;;;;;24.34;49.30;101123.31;8326955;28;20045;-48
2022/08/07 18:29:24;;;;;;;1.77;0.70;;;;;;;24.20;49.40;101138.19;8328154;28;20037;-48
2022/08/07 18:33:57;;;;;;;1.02;0.60;;;;;;;24.06;49.79;101136.53;8327227;28;20051;-48
2022/08/07 18:38:35;;;;;;;3.15;0.60;;;;;;;23.92;49.91;101146.69;8311395;28;20060;-50
2022/08/07 18:42:54;;;;;;;1.38;0.70;;;;;;;23.81;50.01;101151.97;8307452;28;20869;-48
2022/08/07 18:47:10;;;;;;;2.13;0.65;;;;;;;23.75;50.12;101161.13;8317293;28;20133;-48
2022/08/07 18:51:28;;;;;;;1.75;0.60;;;;;;;23.65;50.07;101167.03;8353675;28;20036;-48
2022/08/07 19:00:07;;;;;;;2.83;0.70;;;;;;;23.45;50.63;101173.59;8375079;28;20122;-50
2022/08/07 19:04:19;;;;;;;2.95;0.80;;;;;;;23.27;51.23;101178.81;8353274;28;20049;-48
2022/08/07 19:13:07;;;;;;;2.35;0.65;;;;;;;23.03;51.87;101183.78;8369411;27;20357;-47
2022/08/07 19:17:15;;;;;;;6.68;0.98;;;;;;;22.91;52.16;101196.44;8364149;28;20037;-49
2022/08/07 19:21:45;;;;;;;4.38;1.00;;;;;;;22.83;52.65;101193.88;8350599;28;20048;-51
2022/08/07 19:25:49;;;;;;;4.22;1.15;;;;;;;22.69;52.91;101203.09;8346516;28;20059;-47
2022/08/07 19:30:00;;;;;;;2.87;0.97;;;;;;;22.58;53.14;101206.44;8355464;28;20044;-51
2022/08/07 19:34:01;;;;;;;1.23;0.90;;;;;;;22.49;53.43;101213.13;8355834;28;20082;-48
2022/08/07 19:38:10;;;;;;;0.98;0.85;;;;;;;22.37;53.90;101213.88;8350380;28;20049;-48
2022/08/07 19:42:15;;;;;;;2.70;1.00;;;;;;;22.26;54.18;101217.19;8354501;28;20045;-48
2022/08/07 19:46:22;;;;;;;3.50;1.10;;;;;;;22.17;54.29;101223.88;8358054;28;20037;-47
2022/08/07 19:50:24;;;;;;;3.42;0.93;;;;;;;22.03;54.58;101222.91;8349772;28;20067;-49
2022/08/07 19:54:25;;;;;;;3.65;1.00;;;;;;;21.96;55.06;101233.00;8355298;28;20442;-49
2022/08/07 19:58:30;;;;;;;2.05;1.00;;;;;;;21.91;54.93;101234.63;8367284;28;20041;-47
2022/08/07 20:02:36;;;;;;;3.10;1.02;;;;;;;21.80;55.35;101235.19;8344244;28;20851;-50
2022/08/07 20:06:37;;;;;;;4.63;1.15;;;;;;;21.67;55.71;101230.34;8347536;28;20305;-49
2022/08/07 20:10:39;;;;;;;3.60;1.33;;;;;;;21.51;56.11;101233.34;8344176;28;20043;-48